createdAt,value
2023-04-26T00:00:49.242Z,18.30
2023-04-26T00:06:05.328Z,25.10
2023-04-26T00:11:13.514Z,16.90
2023-04-26T00:16:16.042Z,15.60
2023-04-26T00:22:05.961Z,18.70
2023-04-26T00:32:46.383Z,15.90
2023-04-26T00:37:51.675Z,16.80
2023-04-26T00:44:20.090Z,16.70
2023-04-26T00:49:46.608Z,23.60
2023-04-26T00:55:13.717Z,23.10
2023-04-26T01:01:18.271Z,24.90
2023-04-26T01:07:42.392Z,17.00
2023-04-26T01:13:17.669Z,18.50
2023-04-26T01:19:07.391Z,20.10
2023-04-26T01:24:16.267Z,20.30
2023-04-26T01:29:55.210Z,24.30
2023-04-26T01:35:03.242Z,17.20
2023-04-26T01:40:32.338Z,15.20
2023-04-26T01:46:02.021Z,19.70
2023-04-26T01:51:57.099Z,23.50
2023-04-26T02:03:25.591Z,22.50
2023-04-26T02:09:53.309Z,15.60
2023-04-26T02:16:19.222Z,16.80
2023-04-26T02:22:54.627Z,21.00
2023-04-26T02:28:07.607Z,21.00
2023-04-26T02:34:02.720Z,16.50
2023-04-26T02:40:07.418Z,23.50
2023-04-26T02:45:50.349Z,22.70
2023-04-26T02:51:53.110Z,29.10
2023-04-26T02:57:33.546Z,21.10
2023-04-26T03:02:39.006Z,21.20
2023-04-26T03:08:50.386Z,21.80
2023-04-26T03:14:34.051Z,18.60
2023-04-26T03:20:07.081Z,23.80
2023-04-26T03:25:46.569Z,25.80
2023-04-26T03:31:22.319Z,23.50
2023-04-26T03:37:40.595Z,32.00
2023-04-26T03:43:16.003Z,27.20
2023-04-26T03:49:43.488Z,23.20
2023-04-26T03:56:38.389Z,21.30
2023-04-26T04:02:23.505Z,32.10
2023-04-26T04:08:28.836Z,25.20
2023-04-26T04:14:20.106Z,20.80
2023-04-26T04:19:32.272Z,27.30
2023-04-26T04:25:10.472Z,20.40
2023-04-26T04:31:03.037Z,24.10
2023-04-26T04:36:48.381Z,24.30
2023-04-26T04:42:28.232Z,21.50
2023-04-26T04:47:41.246Z,13.80
2023-04-26T04:53:00.105Z,21.90
2023-04-26T04:58:37.478Z,21.90
2023-04-26T05:03:53.347Z,21.10
2023-04-26T05:09:05.265Z,22.80
2023-04-26T05:14:30.554Z,19.70
2023-04-26T05:20:16.256Z,19.10
2023-04-26T05:26:02.517Z,20.40
2023-04-26T05:32:27.506Z,16.80
2023-04-26T05:38:50.219Z,16.80
2023-04-26T05:44:10.843Z,15.40
2023-04-26T05:49:47.887Z,17.20
2023-04-26T05:55:43.570Z,10.80
2023-04-26T06:00:53.515Z,13.40
2023-04-26T06:06:50.516Z,10.20
2023-04-26T06:12:26.219Z,12.40
2023-04-26T06:18:36.930Z,11.60
2023-04-26T06:23:55.432Z,8.00
2023-04-26T06:29:58.433Z,8.10
2023-04-26T06:35:48.343Z,11.00
2023-04-26T06:41:05.341Z,11.20
2023-04-26T06:46:29.320Z,10.80
2023-04-26T06:52:54.148Z,13.40
2023-04-26T06:59:03.366Z,10.30
2023-04-26T07:04:35.131Z,10.90
2023-04-26T07:09:37.544Z,7.60
2023-04-26T07:15:13.621Z,10.50
2023-04-26T07:21:47.048Z,10.40
2023-04-26T07:27:23.222Z,15.10
2023-04-26T07:34:14.574Z,12.30
2023-04-26T07:40:57.172Z,15.50
2023-04-26T07:46:30.136Z,14.70
2023-04-26T07:52:06.344Z,11.90
2023-04-26T07:57:18.743Z,9.30
2023-04-26T08:04:07.654Z,13.10
2023-04-26T08:09:32.635Z,13.10
2023-04-26T08:14:40.519Z,10.60
2023-04-26T08:19:48.800Z,6.30
2023-04-26T08:24:56.200Z,12.20
2023-04-26T08:30:35.500Z,12.60
2023-04-26T08:35:45.392Z,8.60
2023-04-26T08:41:44.881Z,9.50
2023-04-26T08:47:23.373Z,12.70
2023-04-26T08:53:39.329Z,8.70
2023-04-26T08:58:57.637Z,10.40
2023-04-26T09:04:48.677Z,10.90
2023-04-26T09:10:47.215Z,7.20
2023-04-26T09:15:58.827Z,12.90
2023-04-26T09:22:19.812Z,9.40
2023-04-26T09:27:55.440Z,8.10
2023-04-26T09:33:36.455Z,5.30
2023-04-26T09:39:14.435Z,5.90
2023-04-26T09:44:25.013Z,9.60
2023-04-26T09:49:32.006Z,9.70
2023-04-26T09:55:10.031Z,8.80
2023-04-26T10:01:15.941Z,3.70
2023-04-26T10:06:26.923Z,6.40
2023-04-26T10:11:56.469Z,6.90
2023-04-26T10:18:23.194Z,6.70
2023-04-26T10:24:49.422Z,5.10
2023-04-26T10:31:15.636Z,8.50
2023-04-26T10:37:17.728Z,7.80
2023-04-26T10:42:30.264Z,4.50
2023-04-26T10:49:08.300Z,4.10
2023-04-26T10:54:22.897Z,5.50
2023-04-26T11:00:30.013Z,2.60
2023-04-26T11:06:23.534Z,8.60
2023-04-26T11:11:55.827Z,8.30
2023-04-26T11:17:38.834Z,6.70
2023-04-26T11:23:13.865Z,4.00
2023-04-26T11:28:45.041Z,4.70
2023-04-26T11:35:08.060Z,6.80
2023-04-26T11:40:26.234Z,7.30
2023-04-26T11:45:51.830Z,6.20
2023-04-26T11:51:55.055Z,7.00
2023-04-26T11:57:28.700Z,4.80
2023-04-26T12:02:36.112Z,5.10
2023-04-26T12:08:30.134Z,7.40
2023-04-26T12:14:38.545Z,6.20
2023-04-26T12:20:37.432Z,3.70
2023-04-26T12:25:57.999Z,5.10
2023-04-26T12:31:52.729Z,2.70
2023-04-26T12:38:04.737Z,3.90
2023-04-26T12:44:10.712Z,5.30
2023-04-26T12:50:00.239Z,4.70
2023-04-26T12:56:16.153Z,4.20
2023-04-26T13:01:34.119Z,10.20
2023-04-26T13:07:00.130Z,7.60
2023-04-26T13:12:42.107Z,9.70
2023-04-26T13:18:13.586Z,5.10
2023-04-26T13:23:31.982Z,4.80
2023-04-26T13:28:55.977Z,9.40
2023-04-26T13:35:00.550Z,8.40
2023-04-26T13:40:34.338Z,8.60
2023-04-26T13:45:43.565Z,6.30
2023-04-26T13:50:58.835Z,5.90
2023-04-26T13:56:41.673Z,6.10
2023-04-26T14:03:08.491Z,8.90
2023-04-26T14:08:51.898Z,5.80
2023-04-26T14:14:57.639Z,4.80
2023-04-26T14:21:10.066Z,4.90
2023-04-26T14:27:09.408Z,3.70
2023-04-26T14:32:54.448Z,5.00
2023-04-26T14:38:09.622Z,5.50
2023-04-26T14:43:52.183Z,6.10
2023-04-26T14:49:20.332Z,6.20
2023-04-26T14:54:58.990Z,6.80
2023-04-26T15:05:23.937Z,4.10
2023-04-26T15:10:32.314Z,7.10
2023-04-26T15:16:07.987Z,6.00
2023-04-26T15:21:40.122Z,4.30
2023-04-26T15:27:22.996Z,5.50
2023-04-26T15:32:48.989Z,8.50
2023-04-26T15:37:56.387Z,5.90
2023-04-26T15:43:17.933Z,7.20
2023-04-26T15:48:40.740Z,9.50
2023-04-26T15:54:19.771Z,9.30
2023-04-26T16:00:05.322Z,6.00
2023-04-26T16:05:09.640Z,5.20
2023-04-26T16:10:14.236Z,9.50
2023-04-26T16:15:16.679Z,6.60
2023-04-26T16:20:30.545Z,11.10
2023-04-26T16:26:16.112Z,6.00
2023-04-26T16:31:18.444Z,9.30
2023-04-26T16:36:40.150Z,4.70
2023-04-26T16:42:04.636Z,10.00
2023-04-26T16:47:33.480Z,11.80
2023-04-26T16:52:40.240Z,5.70
2023-04-26T16:58:02.376Z,6.00
2023-04-26T17:03:48.175Z,7.80
2023-04-26T17:08:53.268Z,4.70
2023-04-26T17:14:42.202Z,7.00
2023-04-26T17:20:17.341Z,7.10
2023-04-26T17:25:41.888Z,6.80
2023-04-26T17:31:09.201Z,7.80
2023-04-26T17:36:27.446Z,11.00
2023-04-26T17:42:22.819Z,6.40
2023-04-26T17:47:54.294Z,10.00
2023-04-26T17:53:05.439Z,8.70
2023-04-26T17:59:14.267Z,11.50
2023-04-26T18:05:31.334Z,13.20
2023-04-26T18:11:49.635Z,21.60
2023-04-26T18:17:43.116Z,14.10
2023-04-26T18:23:33.589Z,15.50
2023-04-26T18:30:06.176Z,15.50
2023-04-26T18:37:29.002Z,15.90
2023-04-26T18:44:01.245Z,14.80
2023-04-26T18:49:49.488Z,13.70
2023-04-26T18:55:42.311Z,14.00
2023-04-26T19:02:03.887Z,14.10
2023-04-26T19:08:46.735Z,17.90
2023-04-26T19:15:35.959Z,22.80
2023-04-26T19:22:03.753Z,20.30
2023-04-26T19:29:07.030Z,25.70
2023-04-26T19:35:49.990Z,25.60
2023-04-26T19:42:32.885Z,32.50
2023-04-26T19:48:42.564Z,25.50
2023-04-26T19:54:07.647Z,41.00
2023-04-26T19:59:23.255Z,42.30
2023-04-26T20:05:58.892Z,42.30
2023-04-26T20:12:06.966Z,40.80
2023-04-26T20:17:33.248Z,31.10
2023-04-26T20:23:53.806Z,34.80
2023-04-26T20:30:42.583Z,31.70
2023-04-26T20:37:07.204Z,25.40
2023-04-26T20:43:04.640Z,28.30
2023-04-26T20:49:40.502Z,32.40
2023-04-26T20:55:55.950Z,28.50
2023-04-26T21:02:38.994Z,39.50
2023-04-26T21:08:57.892Z,44.70
2023-04-26T21:14:47.567Z,40.90
2023-04-26T21:20:57.008Z,44.40
2023-04-26T21:27:55.489Z,50.10
2023-04-26T21:34:55.278Z,58.30
2023-04-26T21:41:24.382Z,49.40
2023-04-26T21:47:50.400Z,52.80
2023-04-26T21:54:09.627Z,48.00
2023-04-26T22:01:12.159Z,44.90
2023-04-26T22:07:54.440Z,45.10
2023-04-26T22:14:37.147Z,44.10
2023-04-26T22:20:13.487Z,44.00
2023-04-26T22:26:28.326Z,47.20
2023-04-26T22:32:43.090Z,48.40
2023-04-26T22:39:39.132Z,48.80
2023-04-26T22:47:03.588Z,47.20
2023-04-26T22:53:17.680Z,48.20
2023-04-26T22:59:35.688Z,46.70
2023-04-26T23:05:40.890Z,42.10
2023-04-26T23:11:15.092Z,48.60
2023-04-26T23:17:39.817Z,36.70
2023-04-26T23:23:30.369Z,42.00
2023-04-26T23:35:32.503Z,35.30
2023-04-26T23:41:16.885Z,35.80
2023-04-26T23:48:20.404Z,34.70
2023-04-26T23:54:51.887Z,39.00
